Sonnblick Mtn, Austria
Current Conditions -  °F | °C
As of 12:50 AM on Sunday 21 Dec 2014 (Local Time) from LOWS Reporting Station
Scattered Clouds Scattered Clouds  
Wind Chill: 33°   Ceiling: Unl
Heat Index: 41°   Visibility: 6mi
Dew Point: 32°   Wind: 16mph
Humidity: 70%   Direction: 270°W
Pressure: 30.27"   Gusts: 33mph
Location:  47.05°N, 12.95°E
Report Text: LOWS 202250Z AUTO 27014G29KT 220V310 9999 FEW028 SCT100 05/M00 Q1025
Loading
Personal Weather Stations






























Interactive Weather Map New forecast layout! Learn more

10-Day Weather Forecast

Advertisements
Track Severe Weather on mobile